createdAt,value
2023-01-25T00:00:32.505Z,24.60
2023-01-25T00:01:33.165Z,25.50
2023-01-25T00:02:32.501Z,26.50
2023-01-25T00:03:32.524Z,26.00
2023-01-25T00:04:32.482Z,26.10
2023-01-25T00:05:32.463Z,25.20
2023-01-25T00:06:32.474Z,29.90
2023-01-25T00:07:32.502Z,28.50
2023-01-25T00:08:32.461Z,27.90
2023-01-25T00:09:32.446Z,27.40
2023-01-25T00:10:32.454Z,26.90
2023-01-25T00:11:32.455Z,31.20
2023-01-25T00:12:33.313Z,30.30
2023-01-25T00:13:33.264Z,30.10
2023-01-25T00:14:32.416Z,29.80
2023-01-25T00:15:32.419Z,25.70
2023-01-25T00:16:32.525Z,29.70
2023-01-25T00:17:32.390Z,29.30
2023-01-25T00:18:32.396Z,29.30
2023-01-25T00:19:32.378Z,25.60
2023-01-25T00:20:32.397Z,26.10
2023-01-25T00:21:32.417Z,27.40
2023-01-25T00:22:33.411Z,25.90
2023-01-25T00:23:33.324Z,26.10
2023-01-25T00:24:32.366Z,24.40
2023-01-25T00:25:33.173Z,23.50
2023-01-25T00:26:32.405Z,26.90
2023-01-25T00:27:32.336Z,26.20
2023-01-25T00:28:32.344Z,26.60
2023-01-25T00:29:32.454Z,25.80
2023-01-25T00:30:32.324Z,23.80
2023-01-25T00:31:32.527Z,26.00
2023-01-25T00:32:32.411Z,27.20
2023-01-25T00:33:32.300Z,24.80
2023-01-25T00:34:32.427Z,25.50
2023-01-25T00:35:32.714Z,28.20
2023-01-25T00:36:32.315Z,24.50
2023-01-25T00:37:32.281Z,24.30
2023-01-25T00:38:32.283Z,28.50
2023-01-25T00:39:32.261Z,27.90
2023-01-25T00:40:32.271Z,27.60
2023-01-25T00:41:32.338Z,24.40
2023-01-25T00:42:33.041Z,25.80
2023-01-25T00:43:32.296Z,23.90
2023-01-25T00:44:32.233Z,26.80
2023-01-25T00:45:33.201Z,25.40
2023-01-25T00:46:32.372Z,28.10
2023-01-25T00:47:32.204Z,26.40
2023-01-25T00:48:32.217Z,26.30
2023-01-25T00:49:32.205Z,25.10
2023-01-25T00:50:32.202Z,25.90
2023-01-25T00:51:32.204Z,27.20
2023-01-25T00:52:32.184Z,27.30
2023-01-25T00:53:32.170Z,26.00
2023-01-25T00:54:33.158Z,28.80
2023-01-25T00:55:32.159Z,26.20
2023-01-25T00:56:32.168Z,26.60
2023-01-25T00:57:32.155Z,31.90
2023-01-25T00:58:32.149Z,27.80
2023-01-25T00:59:32.269Z,30.40
2023-01-25T01:00:33.097Z,30.50
2023-01-25T01:01:33.064Z,27.80
2023-01-25T01:02:33.156Z,29.10
2023-01-25T01:03:33.055Z,25.90
2023-01-25T01:04:32.196Z,26.50
2023-01-25T01:05:32.192Z,27.10
2023-01-25T01:06:32.285Z,26.20
2023-01-25T01:07:32.212Z,26.40
2023-01-25T01:08:32.255Z,27.00
2023-01-25T01:09:32.304Z,30.50
2023-01-25T01:10:32.073Z,28.20
2023-01-25T01:11:32.403Z,28.10
2023-01-25T01:12:32.064Z,29.20
2023-01-25T01:13:32.288Z,28.10
2023-01-25T01:14:32.130Z,26.50
2023-01-25T01:15:32.574Z,29.30
2023-01-25T01:16:32.327Z,25.40
2023-01-25T01:17:32.062Z,27.50
2023-01-25T01:18:32.021Z,27.20
2023-01-25T01:19:32.331Z,29.50
2023-01-25T01:20:32.812Z,26.70
2023-01-25T01:21:32.872Z,27.80
2023-01-25T01:22:32.000Z,25.20
2023-01-25T01:23:31.988Z,23.20
2023-01-25T01:24:32.058Z,25.50
2023-01-25T01:25:31.999Z,25.60
2023-01-25T01:26:31.998Z,29.70
2023-01-25T01:27:32.008Z,26.10
2023-01-25T01:28:32.082Z,28.20
2023-01-25T01:29:31.967Z,26.70
2023-01-25T01:30:32.036Z,30.70
2023-01-25T01:31:32.169Z,31.40
2023-01-25T01:32:32.026Z,30.60
2023-01-25T01:33:33.039Z,30.30
2023-01-25T01:34:31.955Z,29.80
2023-01-25T01:35:31.956Z,29.30
2023-01-25T01:36:31.967Z,29.20
2023-01-25T01:37:31.988Z,28.10
2023-01-25T01:38:32.015Z,27.00
2023-01-25T01:39:32.017Z,28.30
2023-01-25T01:40:31.903Z,28.00
2023-01-25T01:41:32.039Z,30.30
2023-01-25T01:42:31.912Z,27.10
2023-01-25T01:43:31.879Z,27.40
2023-01-25T01:44:31.913Z,28.50
2023-01-25T01:45:32.005Z,29.00
2023-01-25T01:46:32.009Z,27.60
2023-01-25T01:47:32.045Z,27.60
2023-01-25T01:48:32.102Z,25.20
2023-01-25T01:49:31.878Z,30.80
2023-01-25T01:50:31.961Z,26.80
2023-01-25T01:51:31.859Z,26.30
2023-01-25T01:52:31.857Z,26.80
2023-01-25T01:53:31.810Z,25.10
2023-01-25T01:54:31.800Z,23.40
2023-01-25T01:55:31.901Z,24.60
2023-01-25T01:56:31.980Z,28.10
2023-01-25T01:57:31.789Z,24.80
2023-01-25T01:58:32.000Z,26.50
2023-01-25T01:59:32.001Z,25.30
2023-01-25T02:00:32.101Z,26.60
2023-01-25T02:01:32.130Z,26.90
2023-01-25T02:02:32.147Z,28.10
2023-01-25T02:03:32.079Z,25.40
2023-01-25T02:04:32.115Z,27.90
2023-01-25T02:05:31.781Z,27.60
2023-01-25T02:06:32.035Z,28.90
2023-01-25T02:07:34.715Z,28.20
2023-01-25T02:08:32.167Z,28.10
2023-01-25T02:09:32.184Z,28.40
2023-01-25T02:10:32.215Z,28.40
2023-01-25T02:11:31.840Z,27.50
2023-01-25T02:12:32.014Z,26.80
2023-01-25T02:13:32.104Z,26.80
2023-01-25T02:14:32.323Z,29.60
2023-01-25T02:15:32.495Z,28.90
2023-01-25T02:16:31.688Z,30.80
2023-01-25T02:17:31.695Z,28.80
2023-01-25T02:18:31.749Z,27.60
2023-01-25T02:19:31.851Z,30.70
2023-01-25T02:20:31.723Z,30.80
2023-01-25T02:21:31.637Z,27.60
2023-01-25T02:22:31.640Z,27.70
2023-01-25T02:23:31.683Z,28.20
2023-01-25T02:24:31.733Z,29.70
2023-01-25T02:25:31.719Z,29.90
2023-01-25T02:26:31.599Z,31.40
2023-01-25T02:27:31.858Z,30.40
2023-01-25T02:28:31.601Z,31.70
2023-01-25T02:29:31.950Z,30.60
2023-01-25T02:30:31.600Z,29.10
2023-01-25T02:31:31.735Z,31.70
2023-01-25T02:32:31.600Z,29.30
2023-01-25T02:33:31.579Z,28.90
2023-01-25T02:34:31.637Z,27.80
2023-01-25T02:35:31.666Z,30.20
2023-01-25T02:36:31.548Z,31.60
2023-01-25T02:37:31.535Z,31.50
2023-01-25T02:38:31.582Z,30.40
2023-01-25T02:39:31.529Z,32.10
2023-01-25T02:40:31.516Z,31.90
2023-01-25T02:41:31.523Z,31.10
2023-01-25T02:42:31.517Z,28.50
2023-01-25T02:43:31.513Z,30.10
2023-01-25T02:44:33.531Z,30.50
2023-01-25T02:45:31.483Z,28.90
2023-01-25T02:46:31.576Z,28.40
2023-01-25T02:47:31.473Z,29.60
2023-01-25T02:48:31.482Z,29.90
2023-01-25T02:49:31.474Z,27.30
2023-01-25T02:50:31.694Z,25.40
2023-01-25T02:51:31.584Z,24.50
2023-01-25T02:52:31.443Z,28.20
2023-01-25T02:53:31.460Z,27.40
2023-01-25T02:54:31.748Z,27.90
2023-01-25T02:55:31.429Z,28.70
2023-01-25T02:56:31.772Z,28.50
2023-01-25T02:57:31.409Z,29.00
2023-01-25T02:58:31.422Z,27.90
2023-01-25T02:59:31.401Z,27.50
2023-01-25T03:00:31.412Z,26.00
2023-01-25T03:01:31.443Z,30.60
2023-01-25T03:02:31.412Z,26.70
2023-01-25T03:03:31.493Z,27.80
2023-01-25T03:04:31.377Z,32.70
2023-01-25T03:05:31.379Z,30.80
2023-01-25T03:06:31.642Z,29.30
2023-01-25T03:07:31.666Z,29.60
2023-01-25T03:08:31.708Z,31.00
2023-01-25T03:09:31.346Z,32.00
2023-01-25T03:10:31.337Z,32.40
2023-01-25T03:11:31.414Z,33.70
2023-01-25T03:12:31.327Z,30.40
2023-01-25T03:13:31.496Z,27.80
2023-01-25T03:14:31.304Z,29.90
2023-01-25T03:15:32.026Z,27.20
2023-01-25T03:16:31.355Z,25.70
2023-01-25T03:17:31.471Z,25.70
2023-01-25T03:18:32.058Z,26.60
2023-01-25T03:19:32.066Z,27.00
2023-01-25T03:20:32.086Z,25.60
2023-01-25T03:21:31.280Z,28.30
2023-01-25T03:22:32.109Z,27.20
2023-01-25T03:23:32.122Z,25.30
2023-01-25T03:24:32.146Z,27.40
2023-01-25T03:25:32.148Z,29.20
2023-01-25T03:26:32.140Z,29.30
2023-01-25T03:27:31.872Z,27.10
2023-01-25T03:28:32.185Z,27.20
2023-01-25T03:29:32.103Z,27.20
2023-01-25T03:30:31.232Z,28.00
2023-01-25T03:31:31.304Z,29.30
2023-01-25T03:32:31.260Z,30.00
2023-01-25T03:33:31.203Z,27.30
2023-01-25T03:34:31.432Z,26.20
2023-01-25T03:35:31.239Z,27.00
2023-01-25T03:36:31.292Z,26.50
2023-01-25T03:37:31.260Z,27.40
2023-01-25T03:38:31.256Z,26.00
2023-01-25T03:39:31.179Z,25.30
2023-01-25T03:40:31.206Z,24.80
2023-01-25T03:41:31.250Z,25.30
2023-01-25T03:42:31.151Z,26.70
2023-01-25T03:43:31.327Z,28.10
2023-01-25T03:44:31.333Z,26.40
2023-01-25T03:45:31.119Z,29.60
2023-01-25T03:46:31.160Z,26.40
2023-01-25T03:47:31.111Z,27.60
2023-01-25T03:48:31.105Z,28.00
2023-01-25T03:49:31.115Z,27.10
2023-01-25T03:50:31.110Z,27.40
2023-01-25T03:51:31.084Z,30.00
2023-01-25T03:52:31.073Z,25.30
2023-01-25T03:53:31.102Z,25.30
2023-01-25T03:54:31.073Z,25.20
2023-01-25T03:55:31.122Z,24.10
2023-01-25T03:56:31.076Z,24.90
2023-01-25T03:57:31.069Z,24.80
2023-01-25T03:58:31.040Z,32.00
2023-01-25T03:59:31.087Z,27.90
2023-01-25T04:00:31.034Z,28.30
2023-01-25T04:01:31.021Z,25.50
2023-01-25T04:02:31.263Z,24.70
2023-01-25T04:03:31.384Z,27.70
2023-01-25T04:04:31.032Z,24.90
2023-01-25T04:05:31.004Z,24.90
2023-01-25T04:06:31.000Z,26.10
2023-01-25T04:07:30.993Z,28.40
2023-01-25T04:08:30.968Z,30.10
2023-01-25T04:09:31.022Z,29.90
2023-01-25T04:10:30.980Z,30.00
2023-01-25T04:11:31.010Z,31.10
2023-01-25T04:12:30.959Z,26.80
2023-01-25T04:13:30.979Z,29.00
2023-01-25T04:14:43.705Z,27.20
2023-01-25T04:15:30.947Z,27.80
2023-01-25T04:16:31.424Z,26.70
2023-01-25T04:17:30.934Z,30.50
2023-01-25T04:18:30.925Z,32.40
2023-01-25T04:19:30.917Z,31.40
2023-01-25T04:20:30.935Z,29.80
2023-01-25T04:21:30.903Z,33.80
2023-01-25T04:22:30.895Z,35.50
2023-01-25T04:23:30.909Z,30.40
2023-01-25T04:24:30.887Z,29.60
2023-01-25T04:25:30.885Z,31.50
2023-01-25T04:26:31.309Z,31.70
2023-01-25T04:27:30.864Z,33.10
2023-01-25T04:28:30.872Z,31.60
2023-01-25T04:29:40.536Z,31.30
2023-01-25T04:30:31.448Z,30.30
2023-01-25T04:31:31.694Z,30.80
2023-01-25T04:32:31.008Z,29.10
2023-01-25T04:33:31.604Z,31.30
2023-01-25T04:34:30.811Z,31.90
2023-01-25T04:35:30.831Z,33.70
2023-01-25T04:36:30.812Z,31.40
2023-01-25T04:37:30.801Z,29.50
2023-01-25T04:38:30.820Z,30.70
2023-01-25T04:39:30.804Z,31.60
2023-01-25T04:40:30.789Z,34.10
2023-01-25T04:41:31.199Z,37.30
2023-01-25T04:42:31.710Z,39.20
2023-01-25T04:43:31.668Z,36.40
2023-01-25T04:44:30.968Z,33.80
2023-01-25T04:45:31.063Z,32.40
2023-01-25T04:46:31.217Z,38.80
2023-01-25T04:47:30.742Z,35.20
2023-01-25T04:48:30.757Z,35.40
2023-01-25T04:49:31.014Z,34.80
2023-01-25T04:50:31.749Z,36.80
2023-01-25T04:51:31.252Z,38.90
2023-01-25T04:52:30.706Z,36.00
2023-01-25T04:53:30.791Z,39.10
2023-01-25T04:54:30.739Z,36.40
2023-01-25T04:55:33.435Z,35.80
2023-01-25T04:56:30.686Z,35.20
2023-01-25T04:57:30.692Z,38.40
2023-01-25T04:58:30.815Z,36.50
2023-01-25T04:59:30.872Z,36.00
2023-01-25T05:00:30.764Z,37.60
2023-01-25T05:01:30.694Z,40.80
2023-01-25T05:02:30.685Z,35.90
2023-01-25T05:03:30.654Z,31.70
2023-01-25T05:04:30.643Z,37.90
2023-01-25T05:05:30.634Z,34.80
2023-01-25T05:06:31.217Z,36.80
2023-01-25T05:07:30.635Z,37.40
2023-01-25T05:08:30.612Z,36.80
2023-01-25T05:09:30.650Z,36.70
2023-01-25T05:10:30.601Z,36.40
2023-01-25T05:11:31.462Z,32.90
2023-01-25T05:12:30.587Z,33.50
2023-01-25T05:13:30.595Z,37.20
2023-01-25T05:14:31.399Z,36.20
2023-01-25T05:15:30.626Z,37.70
2023-01-25T05:16:31.086Z,35.60
2023-01-25T05:17:30.567Z,38.80
2023-01-25T05:18:42.574Z,36.90
2023-01-25T05:19:30.619Z,35.40
2023-01-25T05:20:30.537Z,38.20
2023-01-25T05:21:30.526Z,40.20
2023-01-25T05:22:30.524Z,38.40
2023-01-25T05:23:30.533Z,40.30
2023-01-25T05:24:30.583Z,34.70
2023-01-25T05:25:31.477Z,37.60
2023-01-25T05:26:30.504Z,42.20
2023-01-25T05:27:30.497Z,37.40
2023-01-25T05:28:31.790Z,42.60
2023-01-25T05:29:31.336Z,39.20
2023-01-25T05:30:32.332Z,41.00
2023-01-25T05:31:30.585Z,39.20
2023-01-25T05:32:30.472Z,41.90
2023-01-25T05:33:30.465Z,41.00
2023-01-25T05:34:30.482Z,40.80
2023-01-25T05:35:30.446Z,40.60
2023-01-25T05:36:30.631Z,46.00
2023-01-25T05:37:30.433Z,41.50
2023-01-25T05:38:30.427Z,43.60
2023-01-25T05:39:30.443Z,48.50
2023-01-25T05:40:30.420Z,50.50
2023-01-25T05:41:30.642Z,53.30
2023-01-25T05:42:30.400Z,51.00
2023-01-25T05:43:30.405Z,49.20
2023-01-25T05:44:30.400Z,49.20
2023-01-25T05:45:30.386Z,49.10
2023-01-25T05:46:30.855Z,51.50
2023-01-25T05:47:31.139Z,46.30
2023-01-25T05:48:30.367Z,44.90
2023-01-25T05:49:30.378Z,47.80
2023-01-25T05:50:30.359Z,45.90
2023-01-25T05:51:30.475Z,46.60
2023-01-25T05:52:30.337Z,47.70
2023-01-25T05:53:30.349Z,43.50
2023-01-25T05:54:30.337Z,46.70
2023-01-25T05:55:30.328Z,47.60
2023-01-25T05:56:30.317Z,48.10
2023-01-25T05:57:30.312Z,50.20
2023-01-25T05:58:30.309Z,50.10
2023-01-25T05:59:30.345Z,44.50
2023-01-25T06:00:30.301Z,48.30
2023-01-25T06:01:30.285Z,47.20
2023-01-25T06:02:30.371Z,44.10
2023-01-25T06:03:30.379Z,45.30
2023-01-25T06:04:30.283Z,42.00
2023-01-25T06:05:30.274Z,42.40
2023-01-25T06:06:30.260Z,45.20
2023-01-25T06:07:30.275Z,48.10
2023-01-25T06:08:30.469Z,49.40
2023-01-25T06:09:30.471Z,44.40
2023-01-25T06:10:30.240Z,47.10
2023-01-25T06:11:30.223Z,47.70
2023-01-25T06:12:30.389Z,48.20
2023-01-25T06:13:30.220Z,53.10
2023-01-25T06:14:30.400Z,50.50
2023-01-25T06:15:30.212Z,54.50
2023-01-25T06:16:30.208Z,49.70
2023-01-25T06:17:30.188Z,51.10
2023-01-25T06:18:31.412Z,46.60
2023-01-25T06:19:30.450Z,46.70
2023-01-25T06:20:30.717Z,50.10
2023-01-25T06:21:30.627Z,47.40
2023-01-25T06:22:30.638Z,49.70
2023-01-25T06:23:30.265Z,47.20
2023-01-25T06:24:30.657Z,48.50
2023-01-25T06:25:30.556Z,42.30
2023-01-25T06:26:30.625Z,44.80
2023-01-25T06:27:30.721Z,50.30
2023-01-25T06:28:30.724Z,51.90
2023-01-25T06:29:30.135Z,50.00
2023-01-25T06:30:30.134Z,52.80
2023-01-25T06:31:30.211Z,52.60
2023-01-25T06:32:30.775Z,51.70
2023-01-25T06:33:30.793Z,48.60
2023-01-25T06:34:30.705Z,47.80
2023-01-25T06:35:30.083Z,44.10
2023-01-25T06:36:30.823Z,47.30
2023-01-25T06:37:30.379Z,49.50
2023-01-25T06:38:30.072Z,51.10
2023-01-25T06:39:30.552Z,51.00
2023-01-25T06:40:30.693Z,51.70
2023-01-25T06:41:30.705Z,53.90
2023-01-25T06:42:30.119Z,54.40
2023-01-25T06:43:30.549Z,51.20
2023-01-25T06:44:30.695Z,58.90
2023-01-25T06:45:30.260Z,53.50
2023-01-25T06:46:30.527Z,48.70
2023-01-25T06:47:30.046Z,51.30
2023-01-25T06:48:30.010Z,49.90
2023-01-25T06:49:30.049Z,47.40
2023-01-25T06:50:30.022Z,48.40
2023-01-25T06:51:30.137Z,52.40
2023-01-25T06:52:30.177Z,49.70
2023-01-25T06:53:30.221Z,50.40
2023-01-25T06:54:30.027Z,48.00
2023-01-25T06:55:30.306Z,47.10
2023-01-25T06:56:30.358Z,46.90
2023-01-25T06:57:30.337Z,51.40
2023-01-25T06:58:29.955Z,48.70
2023-01-25T06:59:29.943Z,46.80
2023-01-25T07:00:30.000Z,47.60
2023-01-25T07:01:29.967Z,48.50
2023-01-25T07:02:29.961Z,49.20
2023-01-25T07:03:29.934Z,45.20
2023-01-25T07:04:29.959Z,44.50
2023-01-25T07:05:29.956Z,45.50
2023-01-25T07:06:29.976Z,41.90
2023-01-25T07:07:29.983Z,44.10
2023-01-25T07:08:29.994Z,43.90
2023-01-25T07:09:30.004Z,44.40
2023-01-25T07:10:31.388Z,37.90
2023-01-25T07:11:29.920Z,39.90
2023-01-25T07:12:30.063Z,43.10
2023-01-25T07:13:30.060Z,36.60
2023-01-25T07:14:30.122Z,35.90
2023-01-25T07:15:29.853Z,38.60
2023-01-25T07:16:30.061Z,38.40
2023-01-25T07:17:29.840Z,39.90
2023-01-25T07:18:29.971Z,37.30
2023-01-25T07:19:30.337Z,37.80
2023-01-25T07:20:29.941Z,35.00
2023-01-25T07:21:29.818Z,39.40
2023-01-25T07:22:30.456Z,41.90
2023-01-25T07:23:29.788Z,40.60
2023-01-25T07:24:30.418Z,39.40
2023-01-25T07:25:31.789Z,37.70
2023-01-25T07:26:29.782Z,43.50
2023-01-25T07:27:29.802Z,41.10
2023-01-25T07:28:29.851Z,39.60
2023-01-25T07:29:29.957Z,41.80
2023-01-25T07:30:29.936Z,40.60
2023-01-25T07:31:29.784Z,40.80
2023-01-25T07:32:30.005Z,41.40
2023-01-25T07:33:29.747Z,41.90
2023-01-25T07:34:30.016Z,43.80
2023-01-25T07:35:30.174Z,43.30
2023-01-25T07:36:30.097Z,42.40
2023-01-25T07:37:30.185Z,42.40
2023-01-25T07:38:30.304Z,48.10
2023-01-25T07:39:30.046Z,42.00
2023-01-25T07:40:29.717Z,41.80
2023-01-25T07:41:29.925Z,43.70
2023-01-25T07:42:30.282Z,42.90
2023-01-25T07:43:30.437Z,41.90
2023-01-25T07:44:30.468Z,43.80
2023-01-25T07:45:29.674Z,42.70
2023-01-25T07:46:29.885Z,40.50
2023-01-25T07:47:29.640Z,48.40
2023-01-25T07:48:29.655Z,39.60
2023-01-25T07:49:29.640Z,43.50
2023-01-25T07:50:29.652Z,47.90
2023-01-25T07:51:30.230Z,44.50
2023-01-25T07:52:29.667Z,43.50
2023-01-25T07:53:29.612Z,45.00
2023-01-25T07:54:29.629Z,47.40
2023-01-25T07:55:29.617Z,43.70
2023-01-25T07:56:29.597Z,46.30
2023-01-25T07:57:29.583Z,46.60
2023-01-25T07:58:29.579Z,45.50
2023-01-25T07:59:29.615Z,42.80
2023-01-25T08:00:29.617Z,46.40
2023-01-25T08:01:29.639Z,45.00
2023-01-25T08:02:29.551Z,45.10
2023-01-25T08:03:29.547Z,50.90
2023-01-25T08:04:29.539Z,46.20
2023-01-25T08:05:29.576Z,50.00
2023-01-25T08:06:29.546Z,51.50
2023-01-25T08:07:29.665Z,48.40
2023-01-25T08:08:29.704Z,50.50
2023-01-25T08:09:29.752Z,48.30
2023-01-25T08:10:29.523Z,48.40
2023-01-25T08:11:29.808Z,48.00
2023-01-25T08:12:29.673Z,50.20
2023-01-25T08:13:29.802Z,48.80
2023-01-25T08:14:29.813Z,48.40
2023-01-25T08:15:29.493Z,46.40
2023-01-25T08:16:29.841Z,49.40
2023-01-25T08:17:29.572Z,48.70
2023-01-25T08:18:29.452Z,48.00
2023-01-25T08:19:29.451Z,48.20
2023-01-25T08:20:29.472Z,49.30
2023-01-25T08:21:29.446Z,54.10
2023-01-25T08:22:29.451Z,53.80
2023-01-25T08:23:29.464Z,49.30
2023-01-25T08:24:29.463Z,49.60
2023-01-25T08:25:29.476Z,52.30
2023-01-25T08:26:29.489Z,54.10
2023-01-25T08:27:29.497Z,51.40
2023-01-25T08:28:29.519Z,48.80
2023-01-25T08:29:29.519Z,48.30
2023-01-25T08:30:29.488Z,53.50
2023-01-25T08:31:29.526Z,49.70
2023-01-25T08:32:29.566Z,51.20
2023-01-25T08:33:29.367Z,50.90
2023-01-25T08:34:29.494Z,55.20
2023-01-25T08:35:29.455Z,46.10
2023-01-25T08:36:29.621Z,49.70
2023-01-25T08:37:29.631Z,47.50
2023-01-25T08:38:29.334Z,45.20
2023-01-25T08:39:29.651Z,48.60
2023-01-25T08:40:29.366Z,44.80
2023-01-25T08:41:29.328Z,47.60
2023-01-25T08:42:29.373Z,45.40
2023-01-25T08:43:29.303Z,46.10
2023-01-25T08:44:29.356Z,43.80
2023-01-25T08:45:29.394Z,45.40
2023-01-25T08:46:33.375Z,43.70
2023-01-25T08:47:29.413Z,51.30
2023-01-25T08:48:29.451Z,53.80
2023-01-25T08:49:29.579Z,46.30
2023-01-25T08:50:33.191Z,44.80
2023-01-25T08:51:29.281Z,48.20
2023-01-25T08:52:29.629Z,52.90
2023-01-25T08:53:29.771Z,55.20
2023-01-25T08:54:29.819Z,57.50
2023-01-25T08:55:29.253Z,53.80
2023-01-25T08:56:29.772Z,52.10
2023-01-25T08:57:29.730Z,55.00
2023-01-25T08:58:29.904Z,55.80
2023-01-25T08:59:29.697Z,59.90
2023-01-25T09:00:29.210Z,63.80
2023-01-25T09:01:29.217Z,61.50
2023-01-25T09:02:29.547Z,61.50
2023-01-25T09:03:29.658Z,62.20
2023-01-25T09:04:29.276Z,59.30
2023-01-25T09:05:29.349Z,61.70
2023-01-25T09:06:29.961Z,56.90
2023-01-25T09:07:29.166Z,52.60
2023-01-25T09:08:29.155Z,60.50
2023-01-25T09:09:29.145Z,61.70
2023-01-25T09:10:29.236Z,67.20
2023-01-25T09:11:29.585Z,62.30
2023-01-25T09:12:29.172Z,62.40
2023-01-25T09:13:29.624Z,62.40
2023-01-25T09:14:30.104Z,64.00
2023-01-25T09:15:29.816Z,60.70
2023-01-25T09:16:29.590Z,56.70
2023-01-25T09:17:29.206Z,60.10
2023-01-25T09:18:29.242Z,59.20
2023-01-25T09:19:29.100Z,54.00
2023-01-25T09:20:31.716Z,56.20
2023-01-25T09:21:29.110Z,59.10
2023-01-25T09:22:29.081Z,60.60
2023-01-25T09:23:29.199Z,57.80
2023-01-25T09:24:29.170Z,53.90
2023-01-25T09:25:29.140Z,49.50
2023-01-25T09:26:31.390Z,52.20
2023-01-25T09:27:29.051Z,55.20
2023-01-25T09:28:29.382Z,55.10
2023-01-25T09:29:29.427Z,58.60
2023-01-25T09:30:44.751Z,48.80
2023-01-25T09:31:29.750Z,49.00
2023-01-25T09:32:29.755Z,47.50
2023-01-25T09:33:29.085Z,53.00
2023-01-25T09:34:29.116Z,53.30
2023-01-25T09:35:29.269Z,50.50
2023-01-25T09:36:29.585Z,54.60
2023-01-25T09:37:29.780Z,54.90
2023-01-25T09:38:29.064Z,55.10
2023-01-25T09:39:28.963Z,49.30
2023-01-25T09:40:29.045Z,48.00
2023-01-25T09:41:29.940Z,47.60
2023-01-25T09:42:29.006Z,49.70
2023-01-25T09:43:29.530Z,48.50
2023-01-25T09:44:29.639Z,52.10
2023-01-25T09:45:29.811Z,49.10
2023-01-25T09:46:29.118Z,46.60
2023-01-25T09:47:28.986Z,53.30
2023-01-25T09:48:29.096Z,47.00
2023-01-25T09:49:30.404Z,49.50
2023-01-25T09:50:29.337Z,51.20
2023-01-25T09:51:29.350Z,55.20
2023-01-25T09:52:29.726Z,51.40
2023-01-25T09:53:29.803Z,51.90
2023-01-25T09:54:31.649Z,51.90
2023-01-25T09:55:29.182Z,49.90
2023-01-25T09:56:29.183Z,47.50
2023-01-25T09:57:28.838Z,51.10
2023-01-25T09:58:28.860Z,45.80
2023-01-25T09:59:28.859Z,45.40
2023-01-25T10:00:28.835Z,48.50
2023-01-25T10:01:38.558Z,45.00
2023-01-25T10:02:29.052Z,47.20
2023-01-25T10:03:28.971Z,47.70
2023-01-25T10:04:28.815Z,43.50
2023-01-25T10:05:28.877Z,43.80
2023-01-25T10:06:30.403Z,43.20
2023-01-25T10:07:28.856Z,48.30
2023-01-25T10:08:29.227Z,46.70
2023-01-25T10:09:29.268Z,46.80
2023-01-25T10:10:29.326Z,46.50
2023-01-25T10:11:29.359Z,40.10
2023-01-25T10:12:28.770Z,42.60
2023-01-25T10:13:28.745Z,41.90
2023-01-25T10:14:28.764Z,44.80
2023-01-25T10:15:28.769Z,43.20
2023-01-25T10:16:29.135Z,38.70
2023-01-25T10:17:28.788Z,37.50
2023-01-25T10:18:28.732Z,42.30
2023-01-25T10:19:28.774Z,43.30
2023-01-25T10:20:28.722Z,43.30
2023-01-25T10:21:28.722Z,47.40
2023-01-25T10:22:29.712Z,40.70
2023-01-25T10:23:28.757Z,39.50
2023-01-25T10:24:28.721Z,38.40
2023-01-25T10:25:28.687Z,40.90
2023-01-25T10:26:28.790Z,37.90
2023-01-25T10:27:28.800Z,43.10
2023-01-25T10:28:30.150Z,39.60
2023-01-25T10:29:28.832Z,40.70
2023-01-25T10:30:28.677Z,39.30
2023-01-25T10:31:28.933Z,42.60
2023-01-25T10:32:28.879Z,36.40
2023-01-25T10:33:28.649Z,36.20
2023-01-25T10:34:28.888Z,37.80
2023-01-25T10:35:34.860Z,41.80
2023-01-25T10:36:28.930Z,38.70
2023-01-25T10:37:28.710Z,44.20
2023-01-25T10:38:28.615Z,46.20
2023-01-25T10:39:28.639Z,42.90
2023-01-25T10:40:28.718Z,41.30
2023-01-25T10:41:28.727Z,42.60
2023-01-25T10:42:28.785Z,44.10
2023-01-25T10:43:28.833Z,41.30
2023-01-25T10:44:28.596Z,42.20
2023-01-25T10:45:28.566Z,40.40
2023-01-25T10:46:28.994Z,41.60
2023-01-25T10:47:28.737Z,40.30
2023-01-25T10:48:29.967Z,45.70
2023-01-25T10:49:29.090Z,44.20
2023-01-25T10:50:28.547Z,36.50
2023-01-25T10:51:28.693Z,37.00
2023-01-25T10:52:28.830Z,36.80
2023-01-25T10:53:29.138Z,43.10
2023-01-25T10:54:30.296Z,38.30
2023-01-25T10:55:29.162Z,35.90
2023-01-25T10:56:28.631Z,36.20
2023-01-25T10:57:28.789Z,36.10
2023-01-25T10:58:28.480Z,34.10
2023-01-25T10:59:29.010Z,39.10
2023-01-25T11:00:30.701Z,37.70
2023-01-25T11:01:28.549Z,38.70
2023-01-25T11:02:28.470Z,39.20
2023-01-25T11:03:28.799Z,37.50
2023-01-25T11:04:28.992Z,37.60
2023-01-25T11:05:29.081Z,34.80
2023-01-25T11:06:29.625Z,37.40
2023-01-25T11:07:28.496Z,35.70
2023-01-25T11:08:28.622Z,36.30
2023-01-25T11:09:29.347Z,38.20
2023-01-25T11:10:28.536Z,38.70
2023-01-25T11:11:28.939Z,40.30
2023-01-25T11:12:29.387Z,35.00
2023-01-25T11:13:29.285Z,30.50
2023-01-25T11:14:28.537Z,38.00
2023-01-25T11:15:28.385Z,35.70
2023-01-25T11:16:28.376Z,34.90
2023-01-25T11:17:28.383Z,34.10
2023-01-25T11:18:28.376Z,36.50
2023-01-25T11:19:28.385Z,32.10
2023-01-25T11:20:28.592Z,33.80
2023-01-25T11:21:28.613Z,41.90
2023-01-25T11:22:28.687Z,38.80
2023-01-25T11:23:28.324Z,40.70
2023-01-25T11:24:28.488Z,40.50
2023-01-25T11:25:28.413Z,39.20
2023-01-25T11:26:28.308Z,37.60
2023-01-25T11:27:28.312Z,39.00
2023-01-25T11:28:28.312Z,38.50
2023-01-25T11:29:28.912Z,40.40
2023-01-25T11:30:28.329Z,35.60
2023-01-25T11:31:28.399Z,38.50
2023-01-25T11:32:28.366Z,36.20
2023-01-25T11:33:28.392Z,38.00
2023-01-25T11:34:28.262Z,38.70
2023-01-25T11:35:28.256Z,34.80
2023-01-25T11:36:28.272Z,34.10
2023-01-25T11:37:28.278Z,38.80
2023-01-25T11:38:28.386Z,36.80
2023-01-25T11:39:28.448Z,35.30
2023-01-25T11:40:28.461Z,38.20
2023-01-25T11:41:28.481Z,33.10
2023-01-25T11:42:28.494Z,34.70
2023-01-25T11:43:28.335Z,38.00
2023-01-25T11:44:28.448Z,36.40
2023-01-25T11:45:28.409Z,34.40
2023-01-25T11:46:28.643Z,38.60
2023-01-25T11:47:28.482Z,39.70
2023-01-25T11:48:28.498Z,39.80
2023-01-25T11:49:28.482Z,40.50
2023-01-25T11:50:28.176Z,40.90
2023-01-25T11:51:28.196Z,43.20
2023-01-25T11:52:28.168Z,42.70
2023-01-25T11:53:28.193Z,36.30
2023-01-25T11:54:28.122Z,39.40
2023-01-25T11:55:28.176Z,35.60
2023-01-25T11:56:28.212Z,34.60
2023-01-25T11:57:28.192Z,38.60
2023-01-25T11:58:28.113Z,36.20
2023-01-25T11:59:28.231Z,37.00
2023-01-25T12:00:28.330Z,36.80
2023-01-25T12:01:28.466Z,37.00
2023-01-25T12:02:29.124Z,33.90
2023-01-25T12:03:28.149Z,36.80
2023-01-25T12:04:28.599Z,36.80
2023-01-25T12:05:28.073Z,37.10
2023-01-25T12:06:28.694Z,36.40
2023-01-25T12:07:28.510Z,37.30
2023-01-25T12:08:28.089Z,34.40
2023-01-25T12:09:28.211Z,35.00
2023-01-25T12:10:28.100Z,36.90
2023-01-25T12:11:28.029Z,39.60
2023-01-25T12:12:28.112Z,40.30
2023-01-25T12:13:28.114Z,37.00
2023-01-25T12:14:28.125Z,37.60
2023-01-25T12:15:28.038Z,38.30
2023-01-25T12:16:28.105Z,39.30
2023-01-25T12:17:28.025Z,40.60
2023-01-25T12:18:28.008Z,39.60
2023-01-25T12:19:28.009Z,35.10
2023-01-25T12:20:28.027Z,40.20
2023-01-25T12:21:31.762Z,39.60
2023-01-25T12:22:27.954Z,35.40
2023-01-25T12:23:28.077Z,34.80
2023-01-25T12:24:28.080Z,36.70
2023-01-25T12:25:28.107Z,36.70
2023-01-25T12:26:27.925Z,35.60
2023-01-25T12:27:27.927Z,34.60
2023-01-25T12:28:28.121Z,30.00
2023-01-25T12:29:28.132Z,34.60
2023-01-25T12:30:28.023Z,35.50
2023-01-25T12:31:27.928Z,37.20
2023-01-25T12:32:27.925Z,32.40
2023-01-25T12:33:27.957Z,38.70
2023-01-25T12:34:27.996Z,36.60
2023-01-25T12:35:27.880Z,35.10
2023-01-25T12:36:27.871Z,35.40
2023-01-25T12:37:27.870Z,36.20
2023-01-25T12:38:28.178Z,43.80
2023-01-25T12:39:27.869Z,36.60
2023-01-25T12:40:27.886Z,39.30
2023-01-25T12:41:28.334Z,35.60
2023-01-25T12:42:27.897Z,34.10
2023-01-25T12:43:27.909Z,35.90
2023-01-25T12:44:27.817Z,35.00
2023-01-25T12:45:27.962Z,35.20
2023-01-25T12:46:27.819Z,37.60
2023-01-25T12:47:27.822Z,35.60
2023-01-25T12:48:27.807Z,38.90
2023-01-25T12:49:27.796Z,40.00
2023-01-25T12:50:27.786Z,33.70
2023-01-25T12:51:27.859Z,34.00
2023-01-25T12:52:27.872Z,34.70